createdAt,value
2022-11-02T00:00:53.968Z,94.97
2022-11-02T00:03:20.483Z,92.55
2022-11-02T00:05:46.951Z,111.07
2022-11-02T00:08:13.356Z,29.25
2022-11-02T00:10:39.785Z,46.67
2022-11-02T00:13:06.469Z,95.80
2022-11-02T00:15:36.089Z,33.72
2022-11-02T00:18:05.826Z,42.58
2022-11-02T00:20:32.265Z,43.70
2022-11-02T00:23:03.927Z,19.58
2022-11-02T00:25:30.582Z,60.85
2022-11-02T00:27:57.047Z,15.63
2022-11-02T00:30:23.461Z,54.65
2022-11-02T00:32:50.890Z,29.33
2022-11-02T00:35:17.244Z,66.85
2022-11-02T00:37:43.755Z,23.38
2022-11-02T00:40:11.230Z,68.78
2022-11-02T00:42:37.790Z,27.20
2022-11-02T00:45:05.028Z,21.42
2022-11-02T00:47:31.368Z,17.05
2022-11-02T00:49:57.728Z,39.90
2022-11-02T00:52:24.065Z,47.00
2022-11-02T00:54:50.479Z,31.40
2022-11-02T00:57:17.066Z,43.35
2022-11-02T00:59:43.500Z,40.22
2022-11-02T01:02:10.025Z,28.08
2022-11-02T01:04:37.038Z,22.92
2022-11-02T01:07:03.879Z,15.95
2022-11-02T01:09:30.280Z,60.75
2022-11-02T01:11:57.221Z,35.42
2022-11-02T01:14:23.859Z,29.17
2022-11-02T01:16:50.382Z,16.23
2022-11-02T01:19:16.796Z,98.05
2022-11-02T01:21:43.155Z,9.32
2022-11-02T01:24:09.630Z,31.75
2022-11-02T01:26:36.036Z,21.48
2022-11-02T01:29:02.419Z,19.15
2022-11-02T01:31:28.776Z,18.23
2022-11-02T01:33:55.111Z,13.98
2022-11-02T01:38:49.393Z,19.15
2022-11-02T01:41:17.620Z,16.95
2022-11-02T01:43:46.762Z,13.38
2022-11-02T01:46:19.960Z,15.23
2022-11-02T01:48:52.842Z,15.50
2022-11-02T01:51:32.614Z,15.23
2022-11-02T01:54:05.309Z,17.65
2022-11-02T01:56:33.459Z,14.55
2022-11-02T01:59:04.092Z,13.40
2022-11-02T02:01:31.430Z,17.80
2022-11-02T02:03:58.252Z,16.95
2022-11-02T02:06:28.211Z,14.80
2022-11-02T02:08:58.880Z,15.75
2022-11-02T02:11:31.076Z,18.38
2022-11-02T02:14:05.243Z,16.38
2022-11-02T02:16:46.212Z,16.20
2022-11-02T02:19:35.805Z,16.30
2022-11-02T02:22:23.009Z,13.52
2022-11-02T02:25:14.685Z,14.43
2022-11-02T02:27:59.315Z,18.95
2022-11-02T02:30:26.149Z,21.83
2022-11-02T02:33:05.630Z,12.30
2022-11-02T02:35:49.266Z,21.92
2022-11-02T02:38:27.453Z,13.43
2022-11-02T02:41:09.757Z,15.35
2022-11-02T02:43:46.628Z,15.63
2022-11-02T02:46:17.128Z,13.00
2022-11-02T02:48:45.946Z,12.60
2022-11-02T02:51:20.397Z,11.25
2022-11-02T02:53:52.599Z,11.25
2022-11-02T02:56:23.257Z,11.00
2022-11-02T02:58:58.345Z,12.68
2022-11-02T03:01:26.587Z,12.13
2022-11-02T03:03:53.190Z,12.75
2022-11-02T03:06:30.814Z,12.63
2022-11-02T03:09:49.646Z,11.10
2022-11-02T03:12:47.129Z,10.75
2022-11-02T03:15:36.657Z,14.20
2022-11-02T03:18:03.610Z,15.77
2022-11-02T03:20:39.925Z,16.58
2022-11-02T03:23:20.440Z,41.75
2022-11-02T03:26:13.455Z,17.42
2022-11-02T03:28:56.444Z,20.27
2022-11-02T03:31:44.801Z,44.13
2022-11-02T03:34:29.989Z,25.92
2022-11-02T03:37:07.343Z,24.80
2022-11-02T03:39:41.647Z,41.10
2022-11-02T03:42:12.478Z,75.55
2022-11-02T03:44:40.156Z,37.60
2022-11-02T03:47:11.292Z,46.03
2022-11-02T03:52:10.257Z,12.82
2022-11-02T03:54:54.118Z,18.52
2022-11-02T03:57:27.970Z,23.95
2022-11-02T04:00:06.442Z,44.15
2022-11-02T04:02:37.624Z,57.78
2022-11-02T04:05:04.499Z,78.38
2022-11-02T04:07:58.361Z,42.05
2022-11-02T04:10:25.919Z,84.65
2022-11-02T04:13:10.756Z,48.60
2022-11-02T04:15:37.194Z,45.20
2022-11-02T04:18:22.421Z,32.22
2022-11-02T04:20:52.255Z,94.20
2022-11-02T04:23:38.226Z,137.02
2022-11-02T04:26:05.450Z,42.10
2022-11-02T04:28:31.832Z,94.97
2022-11-02T04:30:59.914Z,23.80
2022-11-02T04:33:35.624Z,23.40
2022-11-02T04:36:04.096Z,17.83
2022-11-02T04:38:43.150Z,14.45
2022-11-02T04:41:30.762Z,12.98
2022-11-02T04:43:57.134Z,16.95
2022-11-02T04:46:25.511Z,16.95
2022-11-02T04:48:52.258Z,17.20
2022-11-02T04:51:20.593Z,17.92
2022-11-02T04:53:51.538Z,36.92
2022-11-02T04:56:18.007Z,86.03
2022-11-02T04:58:48.167Z,113.18
2022-11-02T05:01:15.836Z,117.45
2022-11-02T05:03:42.370Z,91.38
2022-11-02T05:06:12.313Z,54.13
2022-11-02T05:08:39.294Z,87.40
2022-11-02T05:11:05.973Z,114.43
2022-11-02T05:13:32.911Z,90.43
2022-11-02T05:16:00.169Z,27.67
2022-11-02T05:18:28.639Z,73.53
2022-11-02T05:20:57.919Z,95.60
2022-11-02T05:23:24.789Z,116.53
2022-11-02T05:25:58.750Z,49.25
2022-11-02T05:28:26.340Z,157.80
2022-11-02T05:30:54.315Z,44.15
2022-11-02T05:33:22.342Z,46.17
2022-11-02T05:35:50.912Z,96.03
2022-11-02T05:38:17.262Z,90.65
2022-11-02T05:40:43.658Z,70.88
2022-11-02T05:43:10.512Z,28.85
2022-11-02T05:45:37.154Z,116.05
2022-11-02T05:48:06.644Z,69.03
2022-11-02T05:50:33.518Z,36.78
2022-11-02T05:52:59.887Z,15.35
2022-11-02T05:55:26.394Z,56.20
2022-11-02T05:57:55.010Z,31.77
2022-11-02T06:00:22.749Z,20.98
2022-11-02T06:02:49.094Z,27.77
2022-11-02T06:05:15.671Z,64.65
2022-11-02T06:07:42.080Z,28.45
2022-11-02T06:10:08.602Z,67.95
2022-11-02T06:12:35.070Z,108.32
2022-11-02T06:15:01.478Z,76.88
2022-11-02T06:17:27.932Z,70.90
2022-11-02T06:19:54.275Z,63.95
2022-11-02T06:22:20.702Z,25.35
2022-11-02T06:24:47.138Z,108.07
2022-11-02T06:27:13.617Z,48.47
2022-11-02T06:29:39.938Z,28.00
2022-11-02T06:32:06.314Z,11.40
2022-11-02T06:34:32.661Z,23.20
2022-11-02T06:36:59.043Z,24.00
2022-11-02T06:39:25.599Z,19.27
2022-11-02T06:41:52.045Z,20.17
2022-11-02T06:44:18.474Z,10.43
2022-11-02T06:46:44.852Z,13.48
2022-11-02T06:49:11.206Z,23.45
2022-11-02T06:51:37.565Z,33.88
2022-11-02T06:54:08.435Z,16.17
2022-11-02T06:56:35.352Z,28.70
2022-11-02T06:59:01.700Z,26.80
2022-11-02T07:01:28.315Z,23.38
2022-11-02T07:03:54.878Z,21.90
2022-11-02T07:06:21.467Z,5.95
2022-11-02T07:08:47.820Z,6.38
2022-11-02T07:11:16.043Z,3.92
2022-11-02T07:13:42.679Z,4.25
2022-11-02T07:16:09.160Z,5.43
2022-11-02T07:18:35.687Z,6.55
2022-11-02T07:21:02.530Z,3.40
2022-11-02T07:23:29.155Z,4.00
2022-11-02T07:25:55.514Z,5.55
2022-11-02T07:28:22.035Z,3.05
2022-11-02T07:30:49.242Z,15.05
2022-11-02T07:33:15.674Z,6.65
2022-11-02T07:35:42.351Z,7.20
2022-11-02T07:38:09.738Z,7.30
2022-11-02T07:40:36.584Z,3.22
2022-11-02T07:43:04.307Z,3.97
2022-11-02T07:45:32.139Z,3.53
2022-11-02T07:47:58.531Z,4.85
2022-11-02T07:50:26.992Z,4.43
2022-11-02T07:52:55.711Z,3.67
2022-11-02T07:55:27.606Z,3.92
2022-11-02T07:57:54.918Z,3.47
2022-11-02T08:00:21.626Z,3.90
2022-11-02T08:02:48.235Z,3.65
2022-11-02T08:05:14.915Z,2.85
2022-11-02T08:07:41.245Z,3.78
2022-11-02T08:10:08.058Z,3.90
2022-11-02T08:12:34.399Z,2.75
2022-11-02T08:15:06.268Z,4.70
2022-11-02T08:17:33.817Z,4.30
2022-11-02T08:20:00.200Z,3.20
2022-11-02T08:22:26.526Z,4.00
2022-11-02T08:24:52.960Z,2.80
2022-11-02T08:27:19.314Z,3.17
2022-11-02T08:29:45.708Z,5.55
2022-11-02T08:32:12.794Z,3.72
2022-11-02T08:34:39.140Z,3.35
2022-11-02T08:37:07.345Z,3.60
2022-11-02T08:39:33.778Z,3.50
2022-11-02T08:42:00.167Z,3.47
2022-11-02T08:44:26.504Z,3.20
2022-11-02T08:49:24.303Z,4.75
2022-11-02T08:51:50.810Z,4.78
2022-11-02T08:54:17.351Z,3.67
2022-11-02T08:56:43.743Z,4.22
2022-11-02T08:59:10.387Z,4.00
2022-11-02T09:01:37.014Z,3.33
2022-11-02T09:04:03.440Z,2.95
2022-11-02T09:06:29.807Z,3.97
2022-11-02T09:08:58.052Z,2.65
2022-11-02T09:11:26.009Z,3.63
2022-11-02T09:13:56.636Z,4.63
2022-11-02T09:16:23.518Z,4.47
2022-11-02T09:18:49.931Z,4.55
2022-11-02T09:21:16.271Z,4.70
2022-11-02T09:23:42.781Z,3.20
2022-11-02T09:26:09.118Z,5.05
2022-11-02T09:28:35.453Z,2.63
2022-11-02T09:31:02.425Z,4.40
2022-11-02T09:33:30.202Z,2.38
2022-11-02T09:35:56.599Z,1.48
2022-11-02T09:38:22.985Z,3.28
2022-11-02T09:40:58.398Z,3.10
2022-11-02T09:43:33.828Z,2.30
2022-11-02T09:46:04.710Z,3.58
2022-11-02T09:48:45.335Z,3.03
2022-11-02T09:51:15.258Z,6.22
2022-11-02T09:53:45.320Z,3.40
2022-11-02T09:56:14.794Z,3.35
2022-11-02T09:58:44.330Z,1.88
2022-11-02T10:01:24.015Z,2.17
2022-11-02T10:04:05.627Z,2.95
2022-11-02T10:06:37.517Z,3.05
2022-11-02T10:09:10.545Z,1.88
2022-11-02T10:11:48.819Z,2.90
2022-11-02T10:14:23.932Z,2.80
2022-11-02T10:17:10.748Z,1.13
2022-11-02T10:19:44.609Z,2.85
2022-11-02T10:22:15.237Z,1.45
2022-11-02T10:24:43.334Z,3.83
2022-11-02T10:27:18.510Z,3.15
2022-11-02T10:29:57.122Z,2.78
2022-11-02T10:32:23.756Z,2.63
2022-11-02T10:34:58.483Z,3.13
2022-11-02T10:37:58.577Z,2.40
2022-11-02T10:40:42.826Z,2.35
2022-11-02T10:43:24.540Z,2.03
2022-11-02T10:46:13.834Z,1.67
2022-11-02T10:49:02.338Z,2.03
2022-11-02T10:51:29.605Z,3.42
2022-11-02T10:53:56.841Z,4.35
2022-11-02T10:56:33.450Z,1.00
2022-11-02T11:01:31.737Z,5.57
2022-11-02T11:04:19.985Z,3.30
2022-11-02T11:06:46.875Z,2.08
2022-11-02T11:09:24.835Z,3.35
2022-11-02T11:12:06.903Z,5.55
2022-11-02T11:20:38.160Z,1.65
2022-11-02T11:23:27.741Z,3.72
2022-11-02T11:26:06.206Z,1.38
2022-11-02T11:28:52.259Z,2.58
2022-11-02T11:31:19.285Z,2.58
2022-11-02T11:33:51.680Z,2.72
2022-11-02T11:38:55.806Z,2.75
2022-11-02T11:41:23.170Z,2.95
2022-11-02T11:43:51.853Z,3.10
2022-11-02T11:46:20.905Z,2.03
2022-11-02T11:48:56.040Z,2.83
2022-11-02T11:51:27.645Z,2.22
2022-11-02T11:54:21.436Z,1.13
2022-11-02T11:56:49.077Z,3.45
2022-11-02T11:59:43.571Z,3.95
2022-11-02T12:02:43.952Z,2.53
2022-11-02T12:05:15.016Z,3.33
2022-11-02T12:08:06.971Z,1.33
2022-11-02T12:10:47.246Z,1.02
2022-11-02T12:13:38.251Z,3.42
2022-11-02T12:16:21.595Z,2.38
2022-11-02T12:21:43.101Z,3.67
2022-11-02T12:24:31.376Z,2.65
2022-11-02T12:27:35.683Z,3.58
2022-11-02T12:30:15.245Z,3.92
2022-11-02T12:32:54.685Z,4.22
2022-11-02T12:35:45.257Z,5.20
2022-11-02T12:38:49.885Z,2.58
2022-11-02T12:41:16.158Z,3.72
2022-11-02T12:43:53.784Z,5.40
2022-11-02T12:46:49.101Z,4.05
2022-11-02T12:49:27.621Z,4.18
2022-11-02T12:52:06.625Z,1.85
2022-11-02T12:54:42.595Z,2.97
2022-11-02T12:57:15.365Z,4.68
2022-11-02T12:59:43.946Z,2.60
2022-11-02T13:02:17.570Z,2.50
2022-11-02T13:04:59.712Z,4.22
2022-11-02T13:07:38.547Z,2.15
2022-11-02T13:10:15.758Z,7.38
2022-11-02T13:12:44.474Z,2.80
2022-11-02T13:15:17.425Z,3.53
2022-11-02T13:17:47.925Z,3.35
2022-11-02T13:20:26.072Z,4.82
2022-11-02T13:23:05.781Z,6.95
2022-11-02T13:25:40.606Z,3.50
2022-11-02T13:28:24.593Z,2.42
2022-11-02T13:30:52.230Z,4.57
2022-11-02T13:33:34.609Z,4.50
2022-11-02T13:36:01.011Z,2.85
2022-11-02T13:38:47.691Z,5.53
2022-11-02T13:41:48.392Z,1.75
2022-11-02T13:44:36.874Z,3.25
2022-11-02T13:47:22.215Z,4.30
2022-11-02T13:49:51.862Z,2.53
2022-11-02T13:52:30.060Z,5.40
2022-11-02T13:55:02.520Z,3.15
2022-11-02T13:57:37.353Z,4.47
2022-11-02T14:00:25.799Z,4.25
2022-11-02T14:03:18.384Z,3.47
2022-11-02T14:05:52.871Z,2.78
2022-11-02T14:08:28.940Z,3.28
2022-11-02T14:11:09.191Z,3.38
2022-11-02T14:13:53.904Z,2.92
2022-11-02T14:16:42.075Z,4.45
2022-11-02T14:19:19.389Z,4.47
2022-11-02T14:22:09.914Z,4.80
2022-11-02T14:24:36.380Z,3.38
2022-11-02T14:27:11.551Z,3.83
2022-11-02T14:29:38.710Z,5.05
2022-11-02T14:32:40.863Z,2.15
2022-11-02T14:35:16.486Z,2.08
2022-11-02T14:38:16.338Z,1.65
2022-11-02T14:41:11.102Z,5.30
2022-11-02T14:44:03.676Z,3.72
2022-11-02T14:46:57.338Z,5.88
2022-11-02T14:49:30.812Z,3.47
2022-11-02T14:52:03.857Z,3.33
2022-11-02T14:54:34.980Z,4.28
2022-11-02T14:57:24.746Z,5.63
2022-11-02T14:59:55.174Z,3.58
2022-11-02T15:02:29.674Z,2.03
2022-11-02T15:04:59.058Z,3.38
2022-11-02T15:07:40.177Z,2.80
2022-11-02T15:10:15.472Z,4.57
2022-11-02T15:12:49.050Z,2.65
2022-11-02T15:15:35.191Z,4.28
2022-11-02T15:18:24.959Z,3.38
2022-11-02T15:21:12.900Z,6.88
2022-11-02T15:26:14.593Z,5.90
2022-11-02T15:28:44.449Z,3.53
2022-11-02T15:31:26.145Z,2.95
2022-11-02T15:34:02.839Z,3.85
2022-11-02T15:36:36.411Z,3.40
2022-11-02T15:39:08.743Z,4.20
2022-11-02T15:41:42.008Z,7.00
2022-11-02T15:44:32.595Z,5.63
2022-11-02T15:47:34.409Z,4.25
2022-11-02T15:50:08.164Z,3.53
2022-11-02T15:53:01.565Z,1.85
2022-11-02T15:55:42.651Z,3.42
2022-11-02T15:58:40.800Z,1.85
2022-11-02T16:01:25.322Z,3.72
2022-11-02T16:04:03.883Z,5.10
2022-11-02T16:06:34.857Z,4.20
2022-11-02T16:09:02.594Z,1.73
2022-11-02T16:11:29.440Z,3.72
2022-11-02T16:14:16.995Z,3.78
2022-11-02T16:16:50.331Z,5.55
2022-11-02T16:19:21.137Z,4.00
2022-11-02T16:21:49.442Z,3.97
2022-11-02T16:24:17.244Z,11.23
2022-11-02T16:26:46.341Z,8.10
2022-11-02T16:29:26.671Z,4.03
2022-11-02T16:31:53.087Z,3.17
2022-11-02T16:34:22.715Z,3.10
2022-11-02T16:36:49.343Z,4.38
2022-11-02T16:39:27.760Z,2.80
2022-11-02T16:41:58.036Z,3.65
2022-11-02T16:44:27.789Z,6.82
2022-11-02T16:47:09.886Z,19.02
2022-11-02T16:49:51.553Z,2.97
2022-11-02T16:52:21.609Z,6.50
2022-11-02T16:54:49.327Z,5.05
2022-11-02T16:57:25.092Z,6.13
2022-11-02T17:00:00.226Z,9.13
2022-11-02T17:02:41.551Z,4.53
2022-11-02T17:05:23.502Z,3.50
2022-11-02T17:07:52.893Z,4.07
2022-11-02T17:10:25.198Z,6.40
2022-11-02T17:12:51.686Z,6.43
2022-11-02T17:15:23.464Z,8.40
2022-11-02T17:18:16.454Z,6.00
2022-11-02T17:20:42.771Z,4.70
2022-11-02T17:23:33.274Z,7.90
2022-11-02T17:26:18.411Z,5.75
2022-11-02T17:28:46.829Z,6.18
2022-11-02T17:31:34.699Z,8.75
2022-11-02T17:34:17.412Z,8.90
2022-11-02T17:36:49.119Z,9.60
2022-11-02T17:39:17.084Z,6.60
2022-11-02T17:42:03.168Z,8.38
2022-11-02T17:44:29.606Z,6.32
2022-11-02T17:46:56.254Z,10.02
2022-11-02T17:49:22.717Z,12.15
2022-11-02T17:51:49.239Z,8.40
2022-11-02T17:54:15.772Z,10.27
2022-11-02T17:56:42.142Z,9.90
2022-11-02T17:59:08.551Z,6.35
2022-11-02T18:01:35.356Z,9.13
2022-11-02T18:04:02.849Z,8.57
2022-11-02T18:06:29.720Z,12.52
2022-11-02T18:09:10.905Z,5.85
2022-11-02T18:11:37.458Z,8.45
2022-11-02T18:14:05.198Z,6.88
2022-11-02T18:16:32.719Z,4.53
2022-11-02T18:18:59.132Z,8.45
2022-11-02T18:21:25.668Z,8.18
2022-11-02T18:23:52.081Z,10.90
2022-11-02T18:26:18.648Z,11.02
2022-11-02T18:28:45.119Z,11.00
2022-11-02T18:31:16.107Z,11.45
2022-11-02T18:33:43.374Z,9.80
2022-11-02T18:36:10.777Z,6.82
2022-11-02T18:38:38.915Z,9.80
2022-11-02T18:41:29.066Z,8.38
2022-11-02T18:44:14.642Z,37.90
2022-11-02T18:46:42.944Z,43.15
2022-11-02T18:49:09.700Z,22.90
2022-11-02T18:51:37.210Z,8.45
2022-11-02T18:54:07.060Z,7.40
2022-11-02T18:56:35.838Z,8.50
2022-11-02T18:59:03.457Z,11.18
2022-11-02T19:01:31.358Z,9.95
2022-11-02T19:04:02.064Z,12.85
2022-11-02T19:06:50.619Z,10.18
2022-11-02T19:09:18.888Z,7.25
2022-11-02T19:12:00.742Z,6.97
2022-11-02T19:14:30.039Z,6.18
2022-11-02T19:16:56.614Z,4.38
2022-11-02T19:19:24.155Z,6.65
2022-11-02T19:21:50.980Z,7.05
2022-11-02T19:24:20.824Z,9.30
2022-11-02T19:26:49.927Z,6.03
2022-11-02T19:29:16.749Z,7.22
2022-11-02T19:31:43.371Z,8.38
2022-11-02T19:34:12.083Z,6.13
2022-11-02T19:36:39.314Z,5.78
2022-11-02T19:39:09.129Z,10.52
2022-11-02T19:41:37.561Z,8.02
2022-11-02T19:44:04.618Z,6.97
2022-11-02T19:46:31.345Z,9.32
2022-11-02T19:48:58.259Z,4.82
2022-11-02T19:51:27.323Z,7.82
2022-11-02T19:53:56.436Z,8.50
2022-11-02T19:56:23.185Z,12.20
2022-11-02T19:58:51.621Z,14.60
2022-11-02T20:01:30.348Z,11.65
2022-11-02T20:03:57.810Z,8.00
2022-11-02T20:06:27.466Z,7.15
2022-11-02T20:09:01.675Z,12.45
2022-11-02T20:11:29.062Z,37.53
2022-11-02T20:14:01.253Z,12.35
2022-11-02T20:16:28.316Z,22.83
2022-11-02T20:18:55.938Z,30.00
2022-11-02T20:21:34.425Z,8.35
2022-11-02T20:24:04.154Z,13.80
2022-11-02T20:26:35.535Z,15.10
2022-11-02T20:29:04.882Z,12.52
2022-11-02T20:31:39.671Z,12.43
2022-11-02T20:34:08.168Z,11.48
2022-11-02T20:36:36.019Z,9.48
2022-11-02T20:39:04.785Z,11.88
2022-11-02T20:41:32.600Z,8.50
2022-11-02T20:43:59.618Z,8.95
2022-11-02T20:46:47.392Z,9.07
2022-11-02T20:49:21.568Z,10.50
2022-11-02T20:51:54.846Z,11.43
2022-11-02T20:54:22.673Z,9.30
2022-11-02T20:56:50.279Z,32.65
2022-11-02T20:59:18.948Z,16.95
2022-11-02T21:01:49.349Z,15.68
2022-11-02T21:04:20.729Z,23.00
2022-11-02T21:06:48.990Z,20.50
2022-11-02T21:09:17.285Z,18.83
2022-11-02T21:12:02.690Z,15.70
2022-11-02T21:14:29.383Z,9.77
2022-11-02T21:16:55.920Z,45.08
2022-11-02T21:19:22.432Z,30.98
2022-11-02T21:21:48.910Z,72.05
2022-11-02T21:24:15.614Z,34.90
2022-11-02T21:26:43.139Z,81.72
2022-11-02T21:29:09.823Z,32.08
2022-11-02T21:31:36.804Z,50.72
2022-11-02T21:34:05.625Z,24.23
2022-11-02T21:36:33.052Z,51.03
2022-11-02T21:39:00.544Z,54.17
2022-11-02T21:41:29.293Z,163.90
2022-11-02T21:43:56.156Z,87.50
2022-11-02T21:46:25.524Z,197.43
2022-11-02T21:48:52.361Z,95.40
2022-11-02T21:51:21.621Z,98.60
2022-11-02T21:53:50.044Z,71.00
2022-11-02T21:56:32.922Z,77.25
2022-11-02T21:58:59.527Z,68.95
2022-11-02T22:01:48.428Z,46.42
2022-11-02T22:04:28.919Z,79.93
2022-11-02T22:06:55.995Z,68.00
2022-11-02T22:09:22.484Z,20.25
2022-11-02T22:12:09.179Z,64.55
2022-11-02T22:14:36.930Z,108.82
2022-11-02T22:17:11.339Z,27.80
2022-11-02T22:19:49.166Z,38.17
2022-11-02T22:22:15.508Z,54.65
2022-11-02T22:24:44.720Z,24.15
2022-11-02T22:27:11.410Z,86.70
2022-11-02T22:29:37.745Z,51.70
2022-11-02T22:32:04.561Z,61.38
2022-11-02T22:34:31.043Z,82.53
2022-11-02T22:37:17.361Z,77.97
2022-11-02T22:39:43.709Z,56.67
2022-11-02T22:42:10.102Z,24.60
2022-11-02T22:44:36.542Z,105.30
2022-11-02T22:47:03.023Z,36.55
2022-11-02T22:49:29.436Z,40.67
2022-11-02T22:51:55.759Z,83.55
2022-11-02T22:54:22.095Z,62.72
2022-11-02T22:56:48.971Z,50.28
2022-11-02T22:59:15.944Z,86.43
2022-11-02T23:01:42.764Z,70.05
2022-11-02T23:04:11.372Z,124.35
2022-11-02T23:06:37.784Z,84.05
2022-11-02T23:09:05.147Z,59.88
2022-11-02T23:11:36.203Z,92.45
2022-11-02T23:16:37.390Z,124.18
2022-11-02T23:19:29.161Z,53.03
2022-11-02T23:22:24.983Z,44.67
2022-11-02T23:25:12.825Z,73.90
2022-11-02T23:28:16.067Z,32.40
2022-11-02T23:31:01.889Z,112.60
2022-11-02T23:33:32.130Z,89.65
2022-11-02T23:36:10.902Z,63.35
2022-11-02T23:38:59.365Z,40.33
2022-11-02T23:41:26.356Z,59.28
2022-11-02T23:44:11.142Z,86.43
2022-11-02T23:46:45.099Z,40.30
2022-11-02T23:49:13.616Z,76.40
2022-11-02T23:51:58.884Z,60.60
2022-11-02T23:54:44.274Z,34.92
2022-11-02T23:57:11.090Z,81.57
2022-11-02T23:59:37.425Z,43.58
